createdAt,value
2023-10-11T00:01:21.020Z,15.25
2023-10-11T00:03:54.502Z,15.25
2023-10-11T00:06:25.694Z,15.12
2023-10-11T00:08:54.700Z,15.16
2023-10-11T00:11:31.473Z,15.15
2023-10-11T00:13:59.696Z,15.13
2023-10-11T00:16:32.797Z,15.08
2023-10-11T00:19:01.077Z,15.03
2023-10-11T00:21:41.912Z,14.98
2023-10-11T00:24:10.405Z,14.94
2023-10-11T00:26:41.346Z,14.92
2023-10-11T00:29:10.447Z,14.90
2023-10-11T00:31:39.549Z,14.97
2023-10-11T00:34:13.687Z,14.87
2023-10-11T00:36:46.941Z,14.80
2023-10-11T00:39:19.206Z,14.69
2023-10-11T00:41:50.613Z,14.69
2023-10-11T00:44:21.564Z,14.69
2023-10-11T00:47:01.373Z,14.60
2023-10-11T00:49:38.045Z,14.64
2023-10-11T00:52:08.648Z,14.62
2023-10-11T00:54:44.048Z,14.60
2023-10-11T00:57:16.528Z,14.52
2023-10-11T00:59:45.502Z,14.53
2023-10-11T01:02:15.760Z,14.53
2023-10-11T01:04:44.417Z,14.55
2023-10-11T01:07:14.435Z,14.50
2023-10-11T01:09:44.811Z,14.51
2023-10-11T01:12:14.732Z,14.45
2023-10-11T01:14:58.260Z,14.39
2023-10-11T01:17:28.065Z,14.42
2023-10-11T01:19:56.301Z,14.40
2023-10-11T01:22:28.088Z,14.40
2023-10-11T01:24:59.442Z,14.37
2023-10-11T01:27:31.753Z,14.35
2023-10-11T01:30:00.490Z,14.26
2023-10-11T01:32:29.794Z,14.27
2023-10-11T01:34:58.025Z,14.21
2023-10-11T01:37:27.789Z,14.22
2023-10-11T01:39:56.077Z,14.15
2023-10-11T01:42:24.462Z,14.17
2023-10-11T01:44:52.775Z,14.17
2023-10-11T01:47:21.369Z,14.13
2023-10-11T01:49:53.922Z,14.11
2023-10-11T01:52:22.482Z,14.05
2023-10-11T01:54:52.094Z,13.93
2023-10-11T01:57:21.514Z,13.84
2023-10-11T01:59:49.842Z,13.86
2023-10-11T02:02:18.103Z,13.83
2023-10-11T02:04:46.550Z,13.80
2023-10-11T02:07:15.571Z,13.78
2023-10-11T02:09:44.408Z,13.78
2023-10-11T02:12:18.729Z,13.81
2023-10-11T02:14:47.451Z,13.84
2023-10-11T02:17:19.283Z,13.83
2023-10-11T02:19:47.579Z,13.78
2023-10-11T02:22:19.916Z,13.84
2023-10-11T02:24:48.258Z,13.72
2023-10-11T02:27:19.064Z,13.68
2023-10-11T02:29:48.898Z,13.74
2023-10-11T02:32:17.354Z,13.84
2023-10-11T02:34:48.361Z,13.75
2023-10-11T02:37:17.648Z,13.84
2023-10-11T02:39:46.832Z,13.81
2023-10-11T02:42:20.275Z,13.84
2023-10-11T02:44:50.619Z,13.80
2023-10-11T02:47:23.828Z,13.75
2023-10-11T02:49:55.004Z,13.78
2023-10-11T02:52:30.716Z,13.83
2023-10-11T02:55:01.097Z,13.77
2023-10-11T02:57:29.472Z,13.81
2023-10-11T02:59:59.106Z,13.82
2023-10-11T03:02:31.258Z,13.72
2023-10-11T03:05:02.867Z,13.84
2023-10-11T03:07:34.516Z,13.85
2023-10-11T03:10:04.732Z,13.85
2023-10-11T03:12:35.643Z,13.92
2023-10-11T03:15:10.152Z,13.91
2023-10-11T03:17:43.693Z,13.91
2023-10-11T03:20:36.974Z,13.86
2023-10-11T03:23:12.301Z,13.83
2023-10-11T03:25:50.888Z,13.77
2023-10-11T03:28:27.361Z,13.81
2023-10-11T03:30:57.632Z,13.80
2023-10-11T03:33:25.983Z,13.80
2023-10-11T03:35:56.261Z,13.78
2023-10-11T03:38:25.315Z,13.75
2023-10-11T03:40:56.724Z,13.70
2023-10-11T03:43:27.369Z,13.61
2023-10-11T03:46:00.846Z,13.57
2023-10-11T03:48:31.801Z,13.63
2023-10-11T03:51:00.802Z,13.58
2023-10-11T03:53:33.034Z,13.60
2023-10-11T03:56:03.214Z,13.54
2023-10-11T03:58:34.013Z,13.62
2023-10-11T04:01:13.801Z,13.61
2023-10-11T04:03:43.959Z,13.53
2023-10-11T04:06:16.171Z,13.45
2023-10-11T04:08:49.893Z,13.56
2023-10-11T04:11:20.084Z,13.60
2023-10-11T04:13:50.410Z,13.50
2023-10-11T04:16:20.031Z,13.54
2023-10-11T04:18:53.297Z,13.50
2023-10-11T04:21:39.325Z,13.52
2023-10-11T04:24:08.644Z,13.46
2023-10-11T04:26:41.651Z,13.46
2023-10-11T04:29:18.026Z,13.49
2023-10-11T04:32:10.561Z,13.42
2023-10-11T04:34:46.556Z,13.47
2023-10-11T04:37:28.321Z,13.46
2023-10-11T04:40:15.916Z,13.47
2023-10-11T04:42:44.236Z,13.48
2023-10-11T04:45:22.953Z,13.37
2023-10-11T04:47:54.974Z,13.39
2023-10-11T04:50:25.786Z,13.40
2023-10-11T04:52:57.384Z,13.44
2023-10-11T04:55:36.007Z,13.40
2023-10-11T04:58:05.569Z,13.33
2023-10-11T05:00:45.645Z,13.38
2023-10-11T05:03:18.854Z,13.29
2023-10-11T05:05:59.860Z,13.40
2023-10-11T05:08:52.502Z,13.41
2023-10-11T05:11:37.183Z,13.43
2023-10-11T05:14:23.659Z,13.46
2023-10-11T05:16:52.231Z,13.39
2023-10-11T05:19:22.557Z,13.34
2023-10-11T05:22:03.560Z,13.33
2023-10-11T05:24:45.236Z,13.35
2023-10-11T05:27:26.766Z,13.39
2023-10-11T05:30:12.544Z,13.27
2023-10-11T05:32:50.800Z,13.34
2023-10-11T05:35:28.085Z,13.30
2023-10-11T05:38:14.700Z,13.30
2023-10-11T05:41:00.761Z,13.33
2023-10-11T05:43:46.814Z,13.30
2023-10-11T05:46:32.873Z,13.34
2023-10-11T05:49:19.040Z,13.37
2023-10-11T05:51:49.462Z,13.26
2023-10-11T05:54:18.079Z,13.26
2023-10-11T05:56:48.617Z,13.17
2023-10-11T05:59:17.695Z,13.23
2023-10-11T06:01:46.233Z,13.23
2023-10-11T06:04:15.330Z,13.34
2023-10-11T06:06:46.619Z,13.36
2023-10-11T06:09:19.450Z,13.31
2023-10-11T06:11:50.666Z,13.32
2023-10-11T06:14:20.931Z,13.33
2023-10-11T06:16:58.185Z,13.43
2023-10-11T06:19:28.324Z,13.37
2023-10-11T06:21:58.636Z,13.42
2023-10-11T06:24:34.145Z,13.43
2023-10-11T06:27:29.770Z,13.43
2023-10-11T06:29:58.333Z,13.43
2023-10-11T06:32:26.974Z,13.40
2023-10-11T06:34:55.175Z,13.29
2023-10-11T06:37:25.407Z,13.09
2023-10-11T06:40:15.635Z,13.38
2023-10-11T06:42:43.573Z,13.36
2023-10-11T06:45:18.909Z,13.51
2023-10-11T06:47:51.393Z,13.48
2023-10-11T06:50:25.253Z,13.60
2023-10-11T06:52:54.589Z,13.62
2023-10-11T06:55:27.459Z,13.69
2023-10-11T06:57:56.974Z,13.72
2023-10-11T07:00:29.352Z,13.71
2023-10-11T07:03:08.642Z,13.72
2023-10-11T07:05:41.783Z,13.77
2023-10-11T07:08:10.850Z,13.82
2023-10-11T07:10:46.716Z,13.89
2023-10-11T07:13:16.481Z,13.94
2023-10-11T07:15:47.268Z,14.09
2023-10-11T07:18:26.122Z,14.26
2023-10-11T07:21:08.587Z,14.41
2023-10-11T07:23:57.018Z,14.41
2023-10-11T07:26:42.612Z,14.52
2023-10-11T07:29:12.769Z,14.55
2023-10-11T07:31:49.812Z,14.63
2023-10-11T07:34:20.060Z,14.69
2023-10-11T07:36:50.557Z,14.83
2023-10-11T07:39:26.446Z,14.83
2023-10-11T07:42:05.423Z,14.72
2023-10-11T07:44:37.747Z,14.99
2023-10-11T07:47:09.486Z,15.16
2023-10-11T07:49:40.659Z,15.41
2023-10-11T07:52:14.942Z,15.61
2023-10-11T07:54:44.300Z,15.78
2023-10-11T07:57:15.849Z,15.91
2023-10-11T07:59:45.657Z,16.25
2023-10-11T08:05:13.564Z,16.74
2023-10-11T08:07:42.574Z,17.08
2023-10-11T08:10:25.651Z,17.19
2023-10-11T08:12:57.363Z,17.39
2023-10-11T08:15:26.548Z,17.44
2023-10-11T08:17:55.193Z,17.36
2023-10-11T08:20:29.260Z,17.27
2023-10-11T08:22:58.875Z,17.24
2023-10-11T08:25:29.107Z,17.30
2023-10-11T08:28:13.327Z,17.42
2023-10-11T08:30:46.719Z,17.41
2023-10-11T08:33:15.476Z,17.49
2023-10-11T08:35:49.342Z,17.35
2023-10-11T08:38:20.082Z,17.09
2023-10-11T08:40:51.481Z,16.88
2023-10-11T08:43:22.059Z,16.78
2023-10-11T08:46:01.077Z,16.80
2023-10-11T08:48:30.140Z,16.70
2023-10-11T08:51:00.372Z,16.65
2023-10-11T08:53:32.364Z,16.67
2023-10-11T08:56:00.959Z,16.73
2023-10-11T08:58:29.950Z,16.76
2023-10-11T09:01:00.270Z,16.75
2023-10-11T09:03:32.926Z,16.79
2023-10-11T09:06:02.925Z,16.86
2023-10-11T09:08:36.741Z,16.90
2023-10-11T09:11:29.882Z,17.01
2023-10-11T09:14:23.800Z,17.21
2023-10-11T09:16:53.206Z,17.34
2023-10-11T09:19:23.080Z,17.37
2023-10-11T09:22:04.820Z,17.47
2023-10-11T09:24:44.809Z,17.66
2023-10-11T09:27:20.303Z,17.87
2023-10-11T09:29:52.338Z,17.96
2023-10-11T09:32:28.235Z,18.12
2023-10-11T09:34:55.806Z,18.20
2023-10-11T09:37:28.855Z,18.37
2023-10-11T09:40:02.178Z,18.41
2023-10-11T09:42:31.583Z,18.54
2023-10-11T09:45:02.183Z,18.67
2023-10-11T09:47:32.429Z,18.81
2023-10-11T09:50:08.375Z,18.82
2023-10-11T09:52:38.007Z,18.95
2023-10-11T09:55:18.772Z,19.01
2023-10-11T09:58:01.057Z,19.07
2023-10-11T10:00:42.138Z,19.20
2023-10-11T10:03:14.566Z,19.37
2023-10-11T10:06:09.702Z,19.49
2023-10-11T10:08:39.321Z,19.78
2023-10-11T10:11:13.389Z,19.85
2023-10-11T10:14:07.066Z,20.10
2023-10-11T10:17:11.901Z,20.17
2023-10-11T10:19:45.089Z,20.12
2023-10-11T10:22:17.318Z,20.39
2023-10-11T10:24:49.369Z,20.51
2023-10-11T10:27:49.656Z,20.56
2023-10-11T10:30:22.924Z,20.79
2023-10-11T10:33:22.271Z,21.00
2023-10-11T10:35:50.917Z,21.14
2023-10-11T10:38:23.925Z,21.38
2023-10-11T10:41:26.663Z,21.47
2023-10-11T10:44:07.423Z,21.76
2023-10-11T10:46:37.550Z,21.86
2023-10-11T10:49:05.282Z,21.95
2023-10-11T10:51:36.828Z,21.99
2023-10-11T10:54:14.088Z,22.10
2023-10-11T10:56:48.636Z,22.30
2023-10-11T10:59:21.633Z,22.51
2023-10-11T11:01:54.028Z,23.00
2023-10-11T11:04:30.136Z,23.27
2023-10-11T11:06:59.512Z,23.77
2023-10-11T11:09:27.210Z,23.91
2023-10-11T11:12:17.904Z,24.27
2023-10-11T11:14:55.363Z,24.39
2023-10-11T11:17:25.188Z,24.67
2023-10-11T11:20:14.407Z,24.80
2023-10-11T11:22:49.159Z,25.36
2023-10-11T11:25:19.787Z,25.29
2023-10-11T11:28:02.728Z,25.62
2023-10-11T11:30:34.957Z,25.87
2023-10-11T11:33:15.126Z,26.03
2023-10-11T11:35:45.258Z,26.16
2023-10-11T11:38:22.081Z,26.22
2023-10-11T11:40:52.438Z,26.43
2023-10-11T11:43:22.575Z,26.37
2023-10-11T11:45:57.747Z,26.54
2023-10-11T11:48:26.299Z,26.58
2023-10-11T11:50:57.657Z,26.76
2023-10-11T11:53:27.736Z,26.80
2023-10-11T11:55:54.939Z,27.02
2023-10-11T11:58:24.541Z,27.17
2023-10-11T12:01:09.797Z,27.11
2023-10-11T12:03:39.087Z,26.57
2023-10-11T12:06:23.134Z,27.17
2023-10-11T12:08:59.117Z,27.31
2023-10-11T12:11:30.827Z,27.35
2023-10-11T12:14:05.128Z,27.57
2023-10-11T12:16:33.556Z,27.60
2023-10-11T12:19:02.000Z,27.78
2023-10-11T12:21:34.673Z,27.55
2023-10-11T12:24:11.508Z,27.37
2023-10-11T12:26:48.739Z,27.09
2023-10-11T12:29:19.592Z,27.27
2023-10-11T12:31:47.901Z,26.92
2023-10-11T12:34:18.194Z,27.17
2023-10-11T12:36:53.072Z,27.25
2023-10-11T12:39:23.312Z,27.39
2023-10-11T12:41:53.005Z,27.27
2023-10-11T12:44:23.517Z,27.32
2023-10-11T12:46:53.263Z,27.54
2023-10-11T12:49:21.606Z,27.42
2023-10-11T12:51:51.200Z,27.56
2023-10-11T12:54:21.017Z,27.69
2023-10-11T12:56:49.771Z,27.91
2023-10-11T12:59:20.928Z,27.81
2023-10-11T13:01:53.573Z,27.67
2023-10-11T13:04:28.981Z,27.09
2023-10-11T13:07:00.379Z,27.21
2023-10-11T13:09:31.821Z,26.99
2023-10-11T13:12:03.934Z,26.97
2023-10-11T13:14:34.535Z,26.82
2023-10-11T13:17:08.941Z,26.93
2023-10-11T13:19:38.028Z,27.31
2023-10-11T13:22:10.810Z,27.09
2023-10-11T13:24:39.269Z,26.84
2023-10-11T13:27:09.068Z,26.68
2023-10-11T13:29:38.753Z,26.50
2023-10-11T13:32:09.362Z,26.58
2023-10-11T13:34:37.709Z,26.85
2023-10-11T13:37:09.688Z,26.94
2023-10-11T13:39:46.953Z,27.01
2023-10-11T13:42:16.876Z,26.94
2023-10-11T13:44:45.745Z,26.78
2023-10-11T13:47:15.881Z,26.55
2023-10-11T13:49:48.673Z,26.40
2023-10-11T13:52:20.565Z,26.64
2023-10-11T13:54:52.784Z,26.73
2023-10-11T13:57:22.500Z,26.55
2023-10-11T13:59:52.160Z,26.18
2023-10-11T14:02:35.625Z,26.27
2023-10-11T14:05:22.724Z,26.34
2023-10-11T14:07:55.520Z,26.21
2023-10-11T14:10:28.045Z,26.04
2023-10-11T14:13:08.921Z,25.66
2023-10-11T14:15:39.056Z,25.72
2023-10-11T14:18:16.488Z,25.60
2023-10-11T14:20:50.670Z,25.69
2023-10-11T14:23:18.868Z,25.71
2023-10-11T14:25:47.269Z,25.47
2023-10-11T14:28:16.671Z,25.47
2023-10-11T14:30:47.540Z,25.42
2023-10-11T14:33:19.199Z,25.27
2023-10-11T14:35:48.438Z,25.34
2023-10-11T14:38:17.794Z,25.45
2023-10-11T14:40:48.080Z,25.15
2023-10-11T14:43:17.742Z,25.09
2023-10-11T14:45:49.321Z,25.11
2023-10-11T14:48:19.417Z,24.98
2023-10-11T14:50:48.033Z,24.80
2023-10-11T14:53:16.932Z,24.74
2023-10-11T14:55:46.068Z,24.67
2023-10-11T14:58:16.091Z,24.58
2023-10-11T15:00:46.971Z,24.42
2023-10-11T15:03:15.631Z,24.29
2023-10-11T15:05:46.288Z,23.91
2023-10-11T15:08:17.050Z,23.93
2023-10-11T15:10:49.344Z,23.89
2023-10-11T15:13:17.948Z,23.80
2023-10-11T15:15:47.063Z,23.79
2023-10-11T15:18:15.960Z,23.77
2023-10-11T15:20:47.116Z,23.45
2023-10-11T15:23:15.310Z,23.44
2023-10-11T15:25:44.733Z,23.38
2023-10-11T15:28:13.502Z,23.34
2023-10-11T15:30:43.034Z,23.27
2023-10-11T15:33:13.699Z,23.13
2023-10-11T15:35:48.333Z,22.97
2023-10-11T15:38:17.929Z,22.77
2023-10-11T15:40:48.072Z,22.74
2023-10-11T15:43:19.383Z,22.62
2023-10-11T15:45:52.657Z,22.41
2023-10-11T15:48:21.557Z,22.40
2023-10-11T15:50:50.079Z,22.31
2023-10-11T15:53:22.184Z,22.17
2023-10-11T15:55:50.354Z,22.16
2023-10-11T15:58:18.491Z,22.13
2023-10-11T16:00:47.119Z,22.02
2023-10-11T16:03:16.272Z,21.84
2023-10-11T16:05:44.902Z,21.80
2023-10-11T16:08:15.160Z,21.60
2023-10-11T16:10:45.307Z,21.57
2023-10-11T16:13:14.284Z,21.50
2023-10-11T16:15:42.960Z,21.40
2023-10-11T16:18:11.628Z,21.22
2023-10-11T16:20:40.382Z,21.10
2023-10-11T16:23:09.280Z,21.06
2023-10-11T16:25:37.489Z,21.03
2023-10-11T16:28:10.848Z,20.90
2023-10-11T16:30:39.392Z,20.80
2023-10-11T16:33:08.053Z,20.69
2023-10-11T16:35:38.988Z,20.72
2023-10-11T16:38:07.363Z,20.61
2023-10-11T16:40:35.751Z,20.57
2023-10-11T16:43:05.884Z,20.49
2023-10-11T16:45:38.910Z,20.42
2023-10-11T16:48:11.493Z,20.35
2023-10-11T16:50:41.052Z,20.39
2023-10-11T16:53:09.645Z,20.33
2023-10-11T16:55:38.314Z,20.33
2023-10-11T16:58:06.839Z,20.38
2023-10-11T17:00:36.904Z,20.38
2023-10-11T17:03:07.750Z,20.28
2023-10-11T17:05:36.427Z,20.16
2023-10-11T17:08:06.179Z,20.16
2023-10-11T17:10:35.058Z,20.17
2023-10-11T17:13:03.995Z,20.16
2023-10-11T17:15:34.345Z,20.11
2023-10-11T17:18:05.533Z,20.05
2023-10-11T17:20:34.200Z,20.06
2023-10-11T17:23:02.731Z,20.03
2023-10-11T17:25:31.315Z,19.96
2023-10-11T17:28:00.055Z,19.98
2023-10-11T17:30:31.936Z,19.90
2023-10-11T17:33:03.926Z,19.83
2023-10-11T17:35:37.048Z,19.81
2023-10-11T17:38:07.670Z,19.68
2023-10-11T17:40:38.688Z,19.66
2023-10-11T17:43:08.169Z,19.44
2023-10-11T17:45:36.891Z,19.51
2023-10-11T17:48:07.563Z,19.45
2023-10-11T17:50:36.544Z,19.46
2023-10-11T17:53:05.654Z,19.32
2023-10-11T17:55:34.746Z,19.29
2023-10-11T17:58:07.332Z,19.22
2023-10-11T18:00:38.985Z,19.15
2023-10-11T18:03:09.455Z,19.04
2023-10-11T18:05:39.436Z,19.07
2023-10-11T18:08:08.256Z,19.03
2023-10-11T18:10:38.659Z,19.01
2023-10-11T18:13:06.935Z,18.99
2023-10-11T18:15:35.399Z,18.92
2023-10-11T18:18:06.116Z,18.99
2023-10-11T18:20:38.140Z,19.02
2023-10-11T18:23:09.463Z,18.86
2023-10-11T18:25:39.020Z,18.92
2023-10-11T18:28:07.635Z,18.87
2023-10-11T18:30:36.497Z,18.93
2023-10-11T18:33:05.851Z,18.91
2023-10-11T18:35:40.470Z,18.91
2023-10-11T18:38:09.124Z,18.91
2023-10-11T18:40:37.624Z,18.86
2023-10-11T18:43:07.742Z,18.74
2023-10-11T18:45:37.984Z,18.81
2023-10-11T18:48:07.873Z,18.74
2023-10-11T18:50:37.564Z,18.67
2023-10-11T18:53:05.753Z,18.62
2023-10-11T18:55:34.606Z,18.58
2023-10-11T18:58:02.909Z,18.59
2023-10-11T19:00:34.508Z,18.50
2023-10-11T19:03:08.251Z,18.42
2023-10-11T19:05:40.479Z,18.48
2023-10-11T19:08:08.915Z,18.42
2023-10-11T19:10:38.806Z,18.30
2023-10-11T19:13:07.171Z,18.33
2023-10-11T19:15:35.419Z,18.28
2023-10-11T19:18:07.388Z,18.31
2023-10-11T19:20:37.273Z,18.13
2023-10-11T19:23:05.783Z,18.16
2023-10-11T19:25:34.424Z,18.20
2023-10-11T19:28:02.696Z,18.20
2023-10-11T19:30:31.138Z,18.04
2023-10-11T19:32:59.342Z,18.18
2023-10-11T19:35:27.562Z,18.20
2023-10-11T19:37:59.055Z,18.21
2023-10-11T19:40:28.525Z,18.17
2023-10-11T19:42:57.151Z,18.14
2023-10-11T19:45:26.124Z,18.15
2023-10-11T19:47:55.164Z,18.07
2023-10-11T19:50:27.289Z,18.04
2023-10-11T19:52:56.919Z,17.87
2023-10-11T19:55:30.292Z,17.85
2023-10-11T19:58:00.984Z,17.88
2023-10-11T20:00:34.262Z,17.90
2023-10-11T20:03:04.037Z,18.00
2023-10-11T20:05:32.808Z,18.03
2023-10-11T20:08:02.316Z,18.03
2023-10-11T20:10:30.945Z,17.97
2023-10-11T20:12:59.204Z,17.92
2023-10-11T20:15:28.250Z,17.88
2023-10-11T20:17:56.428Z,17.85
2023-10-11T20:20:25.968Z,17.78
2023-10-11T20:22:56.925Z,17.67
2023-10-11T20:25:26.545Z,17.64
2023-10-11T20:27:54.739Z,17.67
2023-10-11T20:30:27.442Z,17.62
2023-10-11T20:32:58.016Z,17.61
2023-10-11T20:35:27.521Z,17.47
2023-10-11T20:38:02.841Z,17.43
2023-10-11T20:40:32.866Z,17.37
2023-10-11T20:43:01.031Z,17.36
2023-10-11T20:45:29.195Z,17.29
2023-10-11T20:47:58.029Z,17.26
2023-10-11T20:50:32.915Z,17.16
2023-10-11T20:53:03.446Z,17.12
2023-10-11T20:55:38.245Z,17.01
2023-10-11T20:58:19.396Z,17.09
2023-10-11T21:00:50.662Z,17.07
2023-10-11T21:03:22.118Z,17.02
2023-10-11T21:05:52.553Z,16.99
2023-10-11T21:08:26.252Z,16.97
2023-10-11T21:10:56.146Z,16.91
2023-10-11T21:13:26.819Z,16.88
2023-10-11T21:16:03.657Z,16.91
2023-10-11T21:18:32.630Z,16.95
2023-10-11T21:21:01.020Z,16.90
2023-10-11T21:23:29.778Z,16.85
2023-10-11T21:26:01.506Z,16.82
2023-10-11T21:28:30.440Z,16.84
2023-10-11T21:30:58.880Z,16.84
2023-10-11T21:33:29.882Z,16.77
2023-10-11T21:36:00.461Z,16.76
2023-10-11T21:38:31.512Z,16.68
2023-10-11T21:41:01.449Z,16.62
2023-10-11T21:43:29.992Z,16.65
2023-10-11T21:45:58.664Z,16.65
2023-10-11T21:48:26.030Z,16.61
2023-10-11T21:50:54.268Z,16.63
2023-10-11T21:53:23.234Z,16.65
2023-10-11T21:55:52.914Z,16.52
2023-10-11T21:58:25.352Z,16.61
2023-10-11T22:00:58.040Z,16.53
2023-10-11T22:03:26.335Z,16.46
2023-10-11T22:05:55.369Z,16.42
2023-10-11T22:08:25.444Z,16.27
2023-10-11T22:10:55.877Z,16.30
2023-10-11T22:13:26.409Z,16.25
2023-10-11T22:15:54.735Z,16.21
2023-10-11T22:18:23.772Z,16.21
2023-10-11T22:20:52.355Z,16.15
2023-10-11T22:23:22.025Z,16.13
2023-10-11T22:25:51.475Z,16.13
2023-10-11T22:28:20.196Z,16.10
2023-10-11T22:30:51.268Z,16.08
2023-10-11T22:33:23.321Z,16.03
2023-10-11T22:35:53.228Z,15.99
2023-10-11T22:38:21.926Z,15.92
2023-10-11T22:40:51.154Z,15.87
2023-10-11T22:43:29.785Z,15.86
2023-10-11T22:46:01.130Z,15.83
2023-10-11T22:48:29.428Z,15.81
2023-10-11T22:50:58.177Z,15.74
2023-10-11T22:53:26.360Z,15.69
2023-10-11T22:55:54.733Z,15.59
2023-10-11T22:58:22.916Z,15.64
2023-10-11T23:00:51.311Z,15.55
2023-10-11T23:03:21.603Z,15.50
2023-10-11T23:05:50.116Z,15.46
2023-10-11T23:08:18.752Z,15.49
2023-10-11T23:10:50.890Z,15.49
2023-10-11T23:13:19.249Z,15.51
2023-10-11T23:15:53.393Z,15.40
2023-10-11T23:18:28.323Z,15.46
2023-10-11T23:21:01.326Z,15.45
2023-10-11T23:23:40.363Z,15.46
2023-10-11T23:26:10.153Z,15.40
2023-10-11T23:28:39.622Z,15.36
2023-10-11T23:31:10.832Z,15.39
2023-10-11T23:33:51.394Z,15.35
2023-10-11T23:36:25.699Z,15.27
2023-10-11T23:39:02.965Z,15.27
2023-10-11T23:41:45.868Z,15.27
2023-10-11T23:44:23.666Z,15.27
2023-10-11T23:47:01.444Z,15.26
2023-10-11T23:52:07.374Z,15.17
2023-10-11T23:54:39.645Z,15.08
2023-10-11T23:57:20.360Z,15.17
2023-10-11T23:59:48.567Z,15.12
